sensor_id;sensor_type;location;lat;lon;timestamp;temperature;humidity
16511;DHT22;8368;48.772;8.754;2023-05-07T00:02:20;9.90;99.90
16511;DHT22;8368;48.772;8.754;2023-05-07T00:04:46;9.90;99.90
16511;DHT22;8368;48.772;8.754;2023-05-07T00:07:11;9.90;99.90
16511;DHT22;8368;48.772;8.754;2023-05-07T00:09:37;9.90;99.90
16511;DHT22;8368;48.772;8.754;2023-05-07T00:12:03;9.90;99.90
16511;DHT22;8368;48.772;8.754;2023-05-07T00:14:28;9.90;99.90
16511;DHT22;8368;48.772;8.754;2023-05-07T00:16:55;9.90;99.90
16511;DHT22;8368;48.772;8.754;2023-05-07T00:19:21;9.90;99.90
16511;DHT22;8368;48.772;8.754;2023-05-07T00:21:46;9.90;99.90
16511;DHT22;8368;48.772;8.754;2023-05-07T00:24:12;9.90;99.90
16511;DHT22;8368;48.772;8.754;2023-05-07T00:26:37;9.80;99.90
16511;DHT22;8368;48.772;8.754;2023-05-07T00:29:03;9.80;99.90
16511;DHT22;8368;48.772;8.754;2023-05-07T00:31:29;9.80;99.90
16511;DHT22;8368;48.772;8.754;2023-05-07T00:33:54;9.90;99.90
16511;DHT22;8368;48.772;8.754;2023-05-07T00:36:20;9.90;99.90
16511;DHT22;8368;48.772;8.754;2023-05-07T00:38:45;9.80;99.90
16511;DHT22;8368;48.772;8.754;2023-05-07T00:41:11;9.80;99.90
16511;DHT22;8368;48.772;8.754;2023-05-07T00:43:36;9.70;99.90
16511;DHT22;8368;48.772;8.754;2023-05-07T00:46:02;9.70;99.90
16511;DHT22;8368;48.772;8.754;2023-05-07T00:48:27;9.70;99.90
16511;DHT22;8368;48.772;8.754;2023-05-07T00:50:53;9.70;99.90
16511;DHT22;8368;48.772;8.754;2023-05-07T00:53:19;9.60;99.90
16511;DHT22;8368;48.772;8.754;2023-05-07T00:55:45;9.60;99.90
16511;DHT22;8368;48.772;8.754;2023-05-07T00:58:10;9.60;99.90
16511;DHT22;8368;48.772;8.754;2023-05-07T01:00:36;9.60;99.90
16511;DHT22;8368;48.772;8.754;2023-05-07T01:03:01;9.60;99.90
16511;DHT22;8368;48.772;8.754;2023-05-07T01:05:27;9.60;99.90
16511;DHT22;8368;48.772;8.754;2023-05-07T01:07:54;9.60;99.90
16511;DHT22;8368;48.772;8.754;2023-05-07T01:10:20;9.60;99.90
16511;DHT22;8368;48.772;8.754;2023-05-07T01:12:46;9.60;99.90
16511;DHT22;8368;48.772;8.754;2023-05-07T01:15:13;9.60;99.90
16511;DHT22;8368;48.772;8.754;2023-05-07T01:17:41;9.60;99.90
16511;DHT22;8368;48.772;8.754;2023-05-07T01:20:08;9.60;99.90
16511;DHT22;8368;48.772;8.754;2023-05-07T01:22:36;9.60;99.90
16511;DHT22;8368;48.772;8.754;2023-05-07T01:25:03;9.60;99.90
16511;DHT22;8368;48.772;8.754;2023-05-07T01:27:29;9.60;99.90
16511;DHT22;8368;48.772;8.754;2023-05-07T01:29:54;9.60;99.90
16511;DHT22;8368;48.772;8.754;2023-05-07T01:35:18;9.60;99.90
16511;DHT22;8368;48.772;8.754;2023-05-07T01:37:45;9.60;99.90
16511;DHT22;8368;48.772;8.754;2023-05-07T01:40:11;9.60;99.90
16511;DHT22;8368;48.772;8.754;2023-05-07T01:42:37;9.60;99.90
16511;DHT22;8368;48.772;8.754;2023-05-07T01:45:03;9.60;99.90
16511;DHT22;8368;48.772;8.754;2023-05-07T01:47:29;9.60;99.90
16511;DHT22;8368;48.772;8.754;2023-05-07T01:49:55;9.50;99.90
16511;DHT22;8368;48.772;8.754;2023-05-07T01:52:21;9.50;99.90
16511;DHT22;8368;48.772;8.754;2023-05-07T01:54:46;9.50;99.90
16511;DHT22;8368;48.772;8.754;2023-05-07T01:57:12;9.50;99.90
16511;DHT22;8368;48.772;8.754;2023-05-07T01:59:37;9.50;99.90
16511;DHT22;8368;48.772;8.754;2023-05-07T02:02:03;9.50;99.90
16511;DHT22;8368;48.772;8.754;2023-05-07T02:04:28;9.50;99.90
16511;DHT22;8368;48.772;8.754;2023-05-07T02:06:57;9.50;99.90
16511;DHT22;8368;48.772;8.754;2023-05-07T02:09:22;9.50;99.90
16511;DHT22;8368;48.772;8.754;2023-05-07T02:11:48;9.50;99.90
16511;DHT22;8368;48.772;8.754;2023-05-07T02:14:14;9.40;99.90
16511;DHT22;8368;48.772;8.754;2023-05-07T02:16:40;9.50;99.90
16511;DHT22;8368;48.772;8.754;2023-05-07T02:19:06;9.40;99.90
16511;DHT22;8368;48.772;8.754;2023-05-07T02:21:31;9.40;99.90
16511;DHT22;8368;48.772;8.754;2023-05-07T02:23:57;9.40;99.90
16511;DHT22;8368;48.772;8.754;2023-05-07T02:26:22;9.40;99.90
16511;DHT22;8368;48.772;8.754;2023-05-07T02:28:48;9.40;99.90
16511;DHT22;8368;48.772;8.754;2023-05-07T02:31:13;9.40;99.90
16511;DHT22;8368;48.772;8.754;2023-05-07T02:33:39;9.30;99.90
16511;DHT22;8368;48.772;8.754;2023-05-07T02:36:06;9.30;99.90
16511;DHT22;8368;48.772;8.754;2023-05-07T02:38:32;9.30;99.90
16511;DHT22;8368;48.772;8.754;2023-05-07T02:40:58;9.20;99.90
16511;DHT22;8368;48.772;8.754;2023-05-07T02:43:23;9.20;99.90
16511;DHT22;8368;48.772;8.754;2023-05-07T02:45:49;9.20;99.90
16511;DHT22;8368;48.772;8.754;2023-05-07T02:48:14;9.10;99.90
16511;DHT22;8368;48.772;8.754;2023-05-07T02:50:40;9.10;99.90
16511;DHT22;8368;48.772;8.754;2023-05-07T02:53:06;9.10;99.90
16511;DHT22;8368;48.772;8.754;2023-05-07T02:55:31;9.10;99.90
16511;DHT22;8368;48.772;8.754;2023-05-07T02:57:57;9.10;99.90
16511;DHT22;8368;48.772;8.754;2023-05-07T03:00:23;9.00;99.90
16511;DHT22;8368;48.772;8.754;2023-05-07T03:02:48;9.00;99.90
16511;DHT22;8368;48.772;8.754;2023-05-07T03:05:14;9.00;99.90
16511;DHT22;8368;48.772;8.754;2023-05-07T03:07:40;8.90;99.90
16511;DHT22;8368;48.772;8.754;2023-05-07T03:10:09;8.90;99.90
16511;DHT22;8368;48.772;8.754;2023-05-07T03:12:35;9.00;99.90
16511;DHT22;8368;48.772;8.754;2023-05-07T03:15:01;9.00;99.90
16511;DHT22;8368;48.772;8.754;2023-05-07T03:17:26;9.00;99.90
16511;DHT22;8368;48.772;8.754;2023-05-07T03:19:52;9.00;99.90
16511;DHT22;8368;48.772;8.754;2023-05-07T03:22:17;9.00;99.90
16511;DHT22;8368;48.772;8.754;2023-05-07T03:24:43;9.00;99.90
16511;DHT22;8368;48.772;8.754;2023-05-07T03:27:08;9.00;99.90
16511;DHT22;8368;48.772;8.754;2023-05-07T03:29:33;9.00;99.90
16511;DHT22;8368;48.772;8.754;2023-05-07T03:31:59;9.00;99.90
16511;DHT22;8368;48.772;8.754;2023-05-07T03:34:25;9.00;99.90
16511;DHT22;8368;48.772;8.754;2023-05-07T03:36:51;8.90;99.90
16511;DHT22;8368;48.772;8.754;2023-05-07T03:39:16;9.00;99.90
16511;DHT22;8368;48.772;8.754;2023-05-07T03:41:42;8.90;99.90
16511;DHT22;8368;48.772;8.754;2023-05-07T03:44:08;8.80;99.90
16511;DHT22;8368;48.772;8.754;2023-05-07T03:46:33;8.70;99.90
16511;DHT22;8368;48.772;8.754;2023-05-07T03:48:59;8.70;99.90
16511;DHT22;8368;48.772;8.754;2023-05-07T03:51:25;8.70;99.90
16511;DHT22;8368;48.772;8.754;2023-05-07T03:53:51;8.60;99.90
16511;DHT22;8368;48.772;8.754;2023-05-07T03:56:22;8.60;99.90
16511;DHT22;8368;48.772;8.754;2023-05-07T03:58:48;8.60;99.90
16511;DHT22;8368;48.772;8.754;2023-05-07T04:01:13;8.60;99.90
16511;DHT22;8368;48.772;8.754;2023-05-07T04:03:39;8.60;99.90
16511;DHT22;8368;48.772;8.754;2023-05-07T04:06:05;8.60;99.90
16511;DHT22;8368;48.772;8.754;2023-05-07T04:08:31;8.60;99.90
16511;DHT22;8368;48.772;8.754;2023-05-07T04:10:57;8.70;99.90
16511;DHT22;8368;48.772;8.754;2023-05-07T04:13:23;8.70;99.90
16511;DHT22;8368;48.772;8.754;2023-05-07T04:15:49;8.70;99.90
16511;DHT22;8368;48.772;8.754;2023-05-07T04:18:15;8.70;99.90
16511;DHT22;8368;48.772;8.754;2023-05-07T04:20:40;8.80;99.90
16511;DHT22;8368;48.772;8.754;2023-05-07T04:23:06;8.70;99.90
16511;DHT22;8368;48.772;8.754;2023-05-07T04:25:32;8.70;99.90
16511;DHT22;8368;48.772;8.754;2023-05-07T04:27:58;8.70;99.90
16511;DHT22;8368;48.772;8.754;2023-05-07T04:30:24;8.80;99.90
16511;DHT22;8368;48.772;8.754;2023-05-07T04:32:49;8.80;99.90
16511;DHT22;8368;48.772;8.754;2023-05-07T04:35:15;8.80;99.90
16511;DHT22;8368;48.772;8.754;2023-05-07T04:37:40;8.80;99.90
16511;DHT22;8368;48.772;8.754;2023-05-07T04:40:06;8.90;99.90
16511;DHT22;8368;48.772;8.754;2023-05-07T04:42:32;8.90;99.90
16511;DHT22;8368;48.772;8.754;2023-05-07T04:44:58;8.90;99.90
16511;DHT22;8368;48.772;8.754;2023-05-07T04:47:23;8.90;99.90
16511;DHT22;8368;48.772;8.754;2023-05-07T04:49:49;8.90;99.90
16511;DHT22;8368;48.772;8.754;2023-05-07T04:52:14;9.00;99.90
16511;DHT22;8368;48.772;8.754;2023-05-07T04:54:40;9.00;99.90
16511;DHT22;8368;48.772;8.754;2023-05-07T04:57:06;9.00;99.90
16511;DHT22;8368;48.772;8.754;2023-05-07T04:59:33;9.00;99.90
16511;DHT22;8368;48.772;8.754;2023-05-07T05:01:58;9.10;99.90
16511;DHT22;8368;48.772;8.754;2023-05-07T05:04:24;9.20;99.90
16511;DHT22;8368;48.772;8.754;2023-05-07T05:06:49;9.30;99.90
16511;DHT22;8368;48.772;8.754;2023-05-07T05:09:15;9.40;99.90
16511;DHT22;8368;48.772;8.754;2023-05-07T05:11:41;9.50;99.90
16511;DHT22;8368;48.772;8.754;2023-05-07T05:14:06;9.60;99.90
16511;DHT22;8368;48.772;8.754;2023-05-07T05:16:32;9.70;99.90
16511;DHT22;8368;48.772;8.754;2023-05-07T05:18:58;9.80;99.90
16511;DHT22;8368;48.772;8.754;2023-05-07T05:21:23;9.90;99.90
16511;DHT22;8368;48.772;8.754;2023-05-07T05:23:49;10.00;99.90
16511;DHT22;8368;48.772;8.754;2023-05-07T05:26:15;10.10;99.90
16511;DHT22;8368;48.772;8.754;2023-05-07T05:28:40;10.20;99.90
16511;DHT22;8368;48.772;8.754;2023-05-07T05:31:06;10.40;99.90
16511;DHT22;8368;48.772;8.754;2023-05-07T05:33:31;10.50;99.90
16511;DHT22;8368;48.772;8.754;2023-05-07T05:35:57;10.70;99.90
16511;DHT22;8368;48.772;8.754;2023-05-07T05:38:22;10.80;99.90
16511;DHT22;8368;48.772;8.754;2023-05-07T05:40:48;10.90;99.90
16511;DHT22;8368;48.772;8.754;2023-05-07T05:43:14;11.10;99.90
16511;DHT22;8368;48.772;8.754;2023-05-07T05:45:39;11.20;99.90
16511;DHT22;8368;48.772;8.754;2023-05-07T05:48:05;11.30;99.90
16511;DHT22;8368;48.772;8.754;2023-05-07T05:50:31;11.50;99.90
16511;DHT22;8368;48.772;8.754;2023-05-07T05:52:56;11.60;99.90
16511;DHT22;8368;48.772;8.754;2023-05-07T05:55:23;11.70;99.90
16511;DHT22;8368;48.772;8.754;2023-05-07T05:57:49;11.80;99.90
16511;DHT22;8368;48.772;8.754;2023-05-07T06:00:15;11.90;99.90
16511;DHT22;8368;48.772;8.754;2023-05-07T06:02:41;12.00;99.90
16511;DHT22;8368;48.772;8.754;2023-05-07T06:05:08;12.10;99.90
16511;DHT22;8368;48.772;8.754;2023-05-07T06:07:33;12.10;99.90
16511;DHT22;8368;48.772;8.754;2023-05-07T06:10:00;12.20;99.90
16511;DHT22;8368;48.772;8.754;2023-05-07T06:12:25;12.20;99.90
16511;DHT22;8368;48.772;8.754;2023-05-07T06:14:51;12.20;99.90
16511;DHT22;8368;48.772;8.754;2023-05-07T06:17:17;12.20;99.90
16511;DHT22;8368;48.772;8.754;2023-05-07T06:19:43;12.20;99.90
16511;DHT22;8368;48.772;8.754;2023-05-07T06:22:08;12.20;99.90
16511;DHT22;8368;48.772;8.754;2023-05-07T06:24:34;12.20;99.90
16511;DHT22;8368;48.772;8.754;2023-05-07T06:27:00;12.30;99.90
16511;DHT22;8368;48.772;8.754;2023-05-07T06:29:25;12.40;99.90
16511;DHT22;8368;48.772;8.754;2023-05-07T06:31:52;12.50;99.90
16511;DHT22;8368;48.772;8.754;2023-05-07T06:34:18;12.60;99.90
16511;DHT22;8368;48.772;8.754;2023-05-07T06:36:43;12.70;99.90
16511;DHT22;8368;48.772;8.754;2023-05-07T06:39:09;12.90;99.90
16511;DHT22;8368;48.772;8.754;2023-05-07T06:41:35;13.00;99.90
16511;DHT22;8368;48.772;8.754;2023-05-07T06:44:02;13.20;99.90
16511;DHT22;8368;48.772;8.754;2023-05-07T06:46:28;13.50;99.90
16511;DHT22;8368;48.772;8.754;2023-05-07T06:48:54;13.70;99.90
16511;DHT22;8368;48.772;8.754;2023-05-07T06:51:19;14.00;99.90
16511;DHT22;8368;48.772;8.754;2023-05-07T06:53:45;14.30;99.90
16511;DHT22;8368;48.772;8.754;2023-05-07T06:56:10;14.60;99.90
16511;DHT22;8368;48.772;8.754;2023-05-07T06:58:36;14.80;99.90
16511;DHT22;8368;48.772;8.754;2023-05-07T07:01:02;15.20;99.90
16511;DHT22;8368;48.772;8.754;2023-05-07T07:03:27;15.50;99.90
16511;DHT22;8368;48.772;8.754;2023-05-07T07:05:54;15.80;99.90
16511;DHT22;8368;48.772;8.754;2023-05-07T07:08:20;16.10;99.90
16511;DHT22;8368;48.772;8.754;2023-05-07T07:10:47;16.40;99.90
16511;DHT22;8368;48.772;8.754;2023-05-07T07:13:13;16.60;99.90
16511;DHT22;8368;48.772;8.754;2023-05-07T07:15:38;16.80;99.90
16511;DHT22;8368;48.772;8.754;2023-05-07T07:18:04;16.70;99.90
16511;DHT22;8368;48.772;8.754;2023-05-07T07:20:29;16.90;99.90
16511;DHT22;8368;48.772;8.754;2023-05-07T07:22:55;17.00;99.90
16511;DHT22;8368;48.772;8.754;2023-05-07T07:25:21;16.90;99.90
16511;DHT22;8368;48.772;8.754;2023-05-07T07:27:46;16.90;99.90
16511;DHT22;8368;48.772;8.754;2023-05-07T07:30:12;16.90;99.90
16511;DHT22;8368;48.772;8.754;2023-05-07T07:32:37;16.80;99.90
16511;DHT22;8368;48.772;8.754;2023-05-07T07:35:03;16.70;99.90
16511;DHT22;8368;48.772;8.754;2023-05-07T07:37:29;16.70;99.90
16511;DHT22;8368;48.772;8.754;2023-05-07T07:39:55;16.70;99.90
16511;DHT22;8368;48.772;8.754;2023-05-07T07:42:21;16.60;99.90
16511;DHT22;8368;48.772;8.754;2023-05-07T07:44:46;16.70;99.90
16511;DHT22;8368;48.772;8.754;2023-05-07T07:47:12;16.70;99.90
16511;DHT22;8368;48.772;8.754;2023-05-07T07:49:38;16.80;99.90
16511;DHT22;8368;48.772;8.754;2023-05-07T07:52:03;16.90;99.90
16511;DHT22;8368;48.772;8.754;2023-05-07T07:54:29;17.10;99.90
16511;DHT22;8368;48.772;8.754;2023-05-07T07:56:55;17.10;99.90
16511;DHT22;8368;48.772;8.754;2023-05-07T07:59:20;17.10;99.90
16511;DHT22;8368;48.772;8.754;2023-05-07T08:01:46;17.10;99.90
16511;DHT22;8368;48.772;8.754;2023-05-07T08:04:13;17.00;99.90
16511;DHT22;8368;48.772;8.754;2023-05-07T08:06:39;17.00;99.90
16511;DHT22;8368;48.772;8.754;2023-05-07T08:09:04;17.00;99.90
16511;DHT22;8368;48.772;8.754;2023-05-07T08:11:30;17.00;99.90
16511;DHT22;8368;48.772;8.754;2023-05-07T08:13:56;17.10;99.90
16511;DHT22;8368;48.772;8.754;2023-05-07T08:16:21;17.10;99.90
16511;DHT22;8368;48.772;8.754;2023-05-07T08:18:47;17.20;99.90
16511;DHT22;8368;48.772;8.754;2023-05-07T08:21:12;17.30;99.90
16511;DHT22;8368;48.772;8.754;2023-05-07T08:23:38;17.50;99.90
16511;DHT22;8368;48.772;8.754;2023-05-07T08:26:04;17.50;99.90
16511;DHT22;8368;48.772;8.754;2023-05-07T08:28:29;17.60;99.90
16511;DHT22;8368;48.772;8.754;2023-05-07T08:30:55;17.70;99.90
16511;DHT22;8368;48.772;8.754;2023-05-07T08:33:22;17.80;99.90
16511;DHT22;8368;48.772;8.754;2023-05-07T08:35:47;17.90;99.90
16511;DHT22;8368;48.772;8.754;2023-05-07T08:38:13;18.00;99.90
16511;DHT22;8368;48.772;8.754;2023-05-07T08:40:39;18.10;99.90
16511;DHT22;8368;48.772;8.754;2023-05-07T08:43:06;18.20;99.90
16511;DHT22;8368;48.772;8.754;2023-05-07T08:45:35;18.30;99.90
16511;DHT22;8368;48.772;8.754;2023-05-07T08:48:05;18.30;99.90
16511;DHT22;8368;48.772;8.754;2023-05-07T08:50:35;18.40;99.90
16511;DHT22;8368;48.772;8.754;2023-05-07T08:53:03;18.30;99.90
16511;DHT22;8368;48.772;8.754;2023-05-07T08:55:28;18.30;99.90
16511;DHT22;8368;48.772;8.754;2023-05-07T08:57:54;18.30;99.90
16511;DHT22;8368;48.772;8.754;2023-05-07T09:00:19;18.40;99.90
16511;DHT22;8368;48.772;8.754;2023-05-07T09:02:45;18.50;99.90
16511;DHT22;8368;48.772;8.754;2023-05-07T09:05:11;18.50;99.90
16511;DHT22;8368;48.772;8.754;2023-05-07T09:07:36;18.60;99.90
16511;DHT22;8368;48.772;8.754;2023-05-07T09:10:03;18.70;99.90
16511;DHT22;8368;48.772;8.754;2023-05-07T09:12:29;18.80;99.90
16511;DHT22;8368;48.772;8.754;2023-05-07T09:14:55;18.90;99.90
16511;DHT22;8368;48.772;8.754;2023-05-07T09:17:20;19.00;99.90
16511;DHT22;8368;48.772;8.754;2023-05-07T09:19:46;19.20;99.90
16511;DHT22;8368;48.772;8.754;2023-05-07T09:22:12;19.30;99.90
16511;DHT22;8368;48.772;8.754;2023-05-07T09:24:38;19.60;99.90
16511;DHT22;8368;48.772;8.754;2023-05-07T09:27:05;19.80;99.90
16511;DHT22;8368;48.772;8.754;2023-05-07T09:29:31;20.20;99.90
16511;DHT22;8368;48.772;8.754;2023-05-07T09:32:07;20.40;99.90
16511;DHT22;8368;48.772;8.754;2023-05-07T09:34:33;20.70;99.90
16511;DHT22;8368;48.772;8.754;2023-05-07T09:37:00;20.80;99.90
16511;DHT22;8368;48.772;8.754;2023-05-07T09:39:26;20.80;99.90
16511;DHT22;8368;48.772;8.754;2023-05-07T09:41:52;20.60;99.90
16511;DHT22;8368;48.772;8.754;2023-05-07T09:44:20;20.50;99.90
16511;DHT22;8368;48.772;8.754;2023-05-07T09:46:50;20.50;99.90
16511;DHT22;8368;48.772;8.754;2023-05-07T09:49:23;20.50;99.90
16511;DHT22;8368;48.772;8.754;2023-05-07T09:51:50;20.30;99.90
16511;DHT22;8368;48.772;8.754;2023-05-07T09:54:17;20.10;99.90
16511;DHT22;8368;48.772;8.754;2023-05-07T09:56:48;20.00;99.90
16511;DHT22;8368;48.772;8.754;2023-05-07T09:59:15;19.80;99.90
16511;DHT22;8368;48.772;8.754;2023-05-07T10:01:42;19.70;99.90
16511;DHT22;8368;48.772;8.754;2023-05-07T10:04:09;19.70;99.90
16511;DHT22;8368;48.772;8.754;2023-05-07T10:06:35;19.50;99.90
16511;DHT22;8368;48.772;8.754;2023-05-07T10:09:02;19.50;99.90
16511;DHT22;8368;48.772;8.754;2023-05-07T10:11:28;19.50;99.90
16511;DHT22;8368;48.772;8.754;2023-05-07T10:13:54;19.50;99.90
16511;DHT22;8368;48.772;8.754;2023-05-07T10:16:21;19.50;99.90
16511;DHT22;8368;48.772;8.754;2023-05-07T10:18:47;19.50;99.90
16511;DHT22;8368;48.772;8.754;2023-05-07T10:21:19;19.50;99.90
16511;DHT22;8368;48.772;8.754;2023-05-07T10:23:49;19.40;99.90
16511;DHT22;8368;48.772;8.754;2023-05-07T10:26:15;19.30;99.90
16511;DHT22;8368;48.772;8.754;2023-05-07T10:28:45;19.20;99.90
16511;DHT22;8368;48.772;8.754;2023-05-07T10:32:19;19.10;99.90
16511;DHT22;8368;48.772;8.754;2023-05-07T10:34:17;19.10;99.90
16511;DHT22;8368;48.772;8.754;2023-05-07T10:36:46;19.00;99.90
16511;DHT22;8368;48.772;8.754;2023-05-07T10:39:12;18.90;99.90
16511;DHT22;8368;48.772;8.754;2023-05-07T10:41:39;18.80;99.90
16511;DHT22;8368;48.772;8.754;2023-05-07T10:44:04;18.80;99.90
16511;DHT22;8368;48.772;8.754;2023-05-07T10:46:31;18.70;99.90
16511;DHT22;8368;48.772;8.754;2023-05-07T10:51:26;18.50;99.90
16511;DHT22;8368;48.772;8.754;2023-05-07T10:56:40;17.90;99.90
16511;DHT22;8368;48.772;8.754;2023-05-07T11:02:01;17.20;99.90
16511;DHT22;8368;48.772;8.754;2023-05-07T11:04:32;16.90;99.90
16511;DHT22;8368;48.772;8.754;2023-05-07T11:15:08;16.10;99.90
16511;DHT22;8368;48.772;8.754;2023-05-07T11:17:51;16.00;99.90
16511;DHT22;8368;48.772;8.754;2023-05-07T11:20:17;16.00;99.90
16511;DHT22;8368;48.772;8.754;2023-05-07T11:22:43;16.00;99.90
16511;DHT22;8368;48.772;8.754;2023-05-07T11:25:08;15.90;99.90
16511;DHT22;8368;48.772;8.754;2023-05-07T11:27:34;15.90;99.90
16511;DHT22;8368;48.772;8.754;2023-05-07T11:30:00;15.90;99.90
16511;DHT22;8368;48.772;8.754;2023-05-07T11:32:31;15.90;99.90
16511;DHT22;8368;48.772;8.754;2023-05-07T11:34:58;15.90;99.90
16511;DHT22;8368;48.772;8.754;2023-05-07T11:37:25;15.90;99.90
16511;DHT22;8368;48.772;8.754;2023-05-07T11:40:05;16.00;99.90
16511;DHT22;8368;48.772;8.754;2023-05-07T11:42:33;16.10;99.90
16511;DHT22;8368;48.772;8.754;2023-05-07T11:44:59;16.20;99.90
16511;DHT22;8368;48.772;8.754;2023-05-07T11:47:25;16.20;99.90
16511;DHT22;8368;48.772;8.754;2023-05-07T11:49:52;16.10;99.90
16511;DHT22;8368;48.772;8.754;2023-05-07T11:52:19;16.10;99.90
16511;DHT22;8368;48.772;8.754;2023-05-07T11:54:49;16.00;99.90
16511;DHT22;8368;48.772;8.754;2023-05-07T11:57:15;16.00;99.90
16511;DHT22;8368;48.772;8.754;2023-05-07T11:59:41;16.00;99.90
16511;DHT22;8368;48.772;8.754;2023-05-07T12:02:07;16.10;99.90
16511;DHT22;8368;48.772;8.754;2023-05-07T12:04:33;16.30;99.90
16511;DHT22;8368;48.772;8.754;2023-05-07T12:06:58;16.30;99.90
16511;DHT22;8368;48.772;8.754;2023-05-07T12:09:24;16.40;99.90
16511;DHT22;8368;48.772;8.754;2023-05-07T12:11:51;16.50;99.90
16511;DHT22;8368;48.772;8.754;2023-05-07T12:14:17;16.70;99.90
16511;DHT22;8368;48.772;8.754;2023-05-07T12:16:43;16.90;99.90
16511;DHT22;8368;48.772;8.754;2023-05-07T12:19:10;16.70;99.90
16511;DHT22;8368;48.772;8.754;2023-05-07T12:21:38;16.70;99.90
16511;DHT22;8368;48.772;8.754;2023-05-07T12:24:05;16.80;99.90
16511;DHT22;8368;48.772;8.754;2023-05-07T12:26:30;16.80;99.90
16511;DHT22;8368;48.772;8.754;2023-05-07T12:28:57;16.90;99.90
16511;DHT22;8368;48.772;8.754;2023-05-07T12:31:25;17.10;99.90
16511;DHT22;8368;48.772;8.754;2023-05-07T12:33:51;17.20;99.90
16511;DHT22;8368;48.772;8.754;2023-05-07T12:36:16;17.20;99.90
16511;DHT22;8368;48.772;8.754;2023-05-07T12:38:42;17.00;99.90
16511;DHT22;8368;48.772;8.754;2023-05-07T12:41:09;16.80;99.90
16511;DHT22;8368;48.772;8.754;2023-05-07T12:43:35;16.70;99.90
16511;DHT22;8368;48.772;8.754;2023-05-07T12:46:03;16.70;99.90
16511;DHT22;8368;48.772;8.754;2023-05-07T12:48:29;16.60;99.90
16511;DHT22;8368;48.772;8.754;2023-05-07T12:50:56;16.50;99.90
16511;DHT22;8368;48.772;8.754;2023-05-07T12:53:24;16.50;99.90
16511;DHT22;8368;48.772;8.754;2023-05-07T12:55:53;16.30;99.90
16511;DHT22;8368;48.772;8.754;2023-05-07T12:58:28;16.10;99.90
16511;DHT22;8368;48.772;8.754;2023-05-07T13:00:55;15.90;99.90
16511;DHT22;8368;48.772;8.754;2023-05-07T13:03:31;15.70;99.90
16511;DHT22;8368;48.772;8.754;2023-05-07T13:06:01;15.60;99.90
16511;DHT22;8368;48.772;8.754;2023-05-07T13:08:30;15.50;99.90
16511;DHT22;8368;48.772;8.754;2023-05-07T13:10:58;15.40;99.90
16511;DHT22;8368;48.772;8.754;2023-05-07T13:13:24;15.30;99.90
16511;DHT22;8368;48.772;8.754;2023-05-07T13:15:50;15.10;99.90
16511;DHT22;8368;48.772;8.754;2023-05-07T13:18:16;15.00;99.90
16511;DHT22;8368;48.772;8.754;2023-05-07T13:20:41;14.90;99.90
16511;DHT22;8368;48.772;8.754;2023-05-07T13:23:07;14.80;99.90
16511;DHT22;8368;48.772;8.754;2023-05-07T13:25:32;14.80;99.90
16511;DHT22;8368;48.772;8.754;2023-05-07T13:27:58;14.70;99.90
16511;DHT22;8368;48.772;8.754;2023-05-07T13:30:24;14.70;99.90
16511;DHT22;8368;48.772;8.754;2023-05-07T13:32:49;14.60;99.90
16511;DHT22;8368;48.772;8.754;2023-05-07T13:35:16;14.50;99.90
16511;DHT22;8368;48.772;8.754;2023-05-07T13:37:42;14.50;99.90
16511;DHT22;8368;48.772;8.754;2023-05-07T13:40:08;14.50;99.90
16511;DHT22;8368;48.772;8.754;2023-05-07T13:42:33;14.40;99.90
16511;DHT22;8368;48.772;8.754;2023-05-07T13:44:59;14.30;99.90
16511;DHT22;8368;48.772;8.754;2023-05-07T13:47:24;14.20;99.90
16511;DHT22;8368;48.772;8.754;2023-05-07T13:49:50;14.10;99.90
16511;DHT22;8368;48.772;8.754;2023-05-07T13:52:16;14.10;99.90
16511;DHT22;8368;48.772;8.754;2023-05-07T13:54:42;14.00;99.90
16511;DHT22;8368;48.772;8.754;2023-05-07T13:57:07;14.00;99.90
16511;DHT22;8368;48.772;8.754;2023-05-07T13:59:33;13.90;99.90
16511;DHT22;8368;48.772;8.754;2023-05-07T14:01:59;13.90;99.90
16511;DHT22;8368;48.772;8.754;2023-05-07T14:04:25;14.00;99.90
16511;DHT22;8368;48.772;8.754;2023-05-07T14:06:51;13.90;99.90
16511;DHT22;8368;48.772;8.754;2023-05-07T14:09:16;14.00;99.90
16511;DHT22;8368;48.772;8.754;2023-05-07T14:11:42;14.00;99.90
16511;DHT22;8368;48.772;8.754;2023-05-07T14:14:07;14.00;99.90
16511;DHT22;8368;48.772;8.754;2023-05-07T14:16:36;14.00;99.90
16511;DHT22;8368;48.772;8.754;2023-05-07T14:19:01;14.10;99.90
16511;DHT22;8368;48.772;8.754;2023-05-07T14:21:27;14.10;99.90
16511;DHT22;8368;48.772;8.754;2023-05-07T14:23:52;14.10;99.90
16511;DHT22;8368;48.772;8.754;2023-05-07T14:26:18;14.20;99.90
16511;DHT22;8368;48.772;8.754;2023-05-07T14:28:44;14.20;99.90
16511;DHT22;8368;48.772;8.754;2023-05-07T14:31:12;14.30;99.90
16511;DHT22;8368;48.772;8.754;2023-05-07T14:33:37;14.30;99.90
16511;DHT22;8368;48.772;8.754;2023-05-07T14:36:03;14.40;99.90
16511;DHT22;8368;48.772;8.754;2023-05-07T14:38:29;14.50;99.90
16511;DHT22;8368;48.772;8.754;2023-05-07T14:40:55;14.60;99.90
16511;DHT22;8368;48.772;8.754;2023-05-07T14:43:21;14.70;99.90
16511;DHT22;8368;48.772;8.754;2023-05-07T14:45:47;14.70;99.90
16511;DHT22;8368;48.772;8.754;2023-05-07T14:48:12;14.80;99.90
16511;DHT22;8368;48.772;8.754;2023-05-07T14:50:41;14.80;99.90
16511;DHT22;8368;48.772;8.754;2023-05-07T14:53:06;14.90;99.90
16511;DHT22;8368;48.772;8.754;2023-05-07T14:55:32;14.90;99.90
16511;DHT22;8368;48.772;8.754;2023-05-07T14:57:57;15.00;99.90
16511;DHT22;8368;48.772;8.754;2023-05-07T15:00:23;15.00;99.90
16511;DHT22;8368;48.772;8.754;2023-05-07T15:02:48;15.00;99.90
16511;DHT22;8368;48.772;8.754;2023-05-07T15:05:14;15.00;99.90
16511;DHT22;8368;48.772;8.754;2023-05-07T15:07:40;15.00;99.90
16511;DHT22;8368;48.772;8.754;2023-05-07T15:10:08;15.10;99.90
16511;DHT22;8368;48.772;8.754;2023-05-07T15:12:34;15.00;99.90
16511;DHT22;8368;48.772;8.754;2023-05-07T15:14:59;15.00;99.90
16511;DHT22;8368;48.772;8.754;2023-05-07T15:17:25;15.00;99.90
16511;DHT22;8368;48.772;8.754;2023-05-07T15:19:50;15.00;99.90
16511;DHT22;8368;48.772;8.754;2023-05-07T15:22:17;15.00;99.90
16511;DHT22;8368;48.772;8.754;2023-05-07T15:24:42;15.10;99.90
16511;DHT22;8368;48.772;8.754;2023-05-07T15:27:09;15.20;99.90
16511;DHT22;8368;48.772;8.754;2023-05-07T15:29:35;15.20;99.90
16511;DHT22;8368;48.772;8.754;2023-05-07T15:32:00;15.30;99.90
16511;DHT22;8368;48.772;8.754;2023-05-07T15:34:26;15.40;99.90
16511;DHT22;8368;48.772;8.754;2023-05-07T15:36:52;15.40;99.90
16511;DHT22;8368;48.772;8.754;2023-05-07T15:39:18;15.50;99.90
16511;DHT22;8368;48.772;8.754;2023-05-07T15:41:43;15.50;99.90
16511;DHT22;8368;48.772;8.754;2023-05-07T15:44:09;15.60;99.90
16511;DHT22;8368;48.772;8.754;2023-05-07T15:46:35;15.60;99.90
16511;DHT22;8368;48.772;8.754;2023-05-07T15:49:02;15.70;99.90
16511;DHT22;8368;48.772;8.754;2023-05-07T15:51:29;15.60;99.90
16511;DHT22;8368;48.772;8.754;2023-05-07T15:53:56;15.60;99.90
16511;DHT22;8368;48.772;8.754;2023-05-07T15:56:21;15.60;99.90
16511;DHT22;8368;48.772;8.754;2023-05-07T15:58:47;15.50;99.90
16511;DHT22;8368;48.772;8.754;2023-05-07T16:01:13;15.50;99.90
16511;DHT22;8368;48.772;8.754;2023-05-07T16:03:39;15.50;99.90
16511;DHT22;8368;48.772;8.754;2023-05-07T16:06:05;15.50;99.90